createdAt,value
2023-01-17T00:02:01.704Z,26.67
2023-01-17T00:04:48.123Z,24.92
2023-01-17T00:07:35.850Z,25.60
2023-01-17T00:10:11.352Z,25.17
2023-01-17T00:12:39.480Z,23.33
2023-01-17T00:15:07.908Z,27.87
2023-01-17T00:17:35.217Z,25.17
2023-01-17T00:20:21.640Z,26.65
2023-01-17T00:23:08.040Z,25.48
2023-01-17T00:25:56.562Z,26.95
2023-01-17T00:28:24.815Z,26.57
2023-01-17T00:30:52.179Z,24.10
2023-01-17T00:33:20.294Z,26.77
2023-01-17T00:35:47.918Z,26.27
2023-01-17T00:38:16.885Z,27.62
2023-01-17T00:40:44.724Z,27.20
2023-01-17T00:43:31.813Z,29.30
2023-01-17T00:46:17.853Z,28.10
2023-01-17T00:51:50.397Z,26.12
2023-01-17T00:54:36.650Z,28.37
2023-01-17T00:57:22.871Z,27.48
2023-01-17T01:02:54.829Z,26.90
2023-01-17T01:05:41.391Z,26.10
2023-01-17T01:08:53.643Z,25.62
2023-01-17T01:11:40.160Z,25.42
2023-01-17T01:14:26.752Z,24.90
2023-01-17T01:17:13.145Z,23.45
2023-01-17T01:19:59.136Z,24.87
2023-01-17T01:25:31.107Z,23.23
2023-01-17T01:28:29.484Z,24.63
2023-01-17T01:31:18.349Z,23.07
2023-01-17T01:33:46.013Z,23.23
2023-01-17T01:36:13.469Z,20.87
2023-01-17T01:38:40.883Z,22.47
2023-01-17T01:41:08.545Z,22.17
2023-01-17T01:43:43.507Z,18.93
2023-01-17T01:46:18.299Z,21.20
2023-01-17T01:48:57.248Z,20.27
2023-01-17T01:51:40.053Z,22.47
2023-01-17T01:54:13.141Z,21.08
2023-01-17T01:56:40.995Z,19.90
2023-01-17T01:59:09.744Z,19.53
2023-01-17T02:01:37.552Z,17.70
2023-01-17T02:04:09.741Z,18.63
2023-01-17T02:06:42.407Z,19.17
2023-01-17T02:09:11.115Z,17.53
2023-01-17T02:11:38.794Z,17.70
2023-01-17T02:14:06.275Z,19.58
2023-01-17T02:17:07.264Z,19.52
2023-01-17T02:19:47.388Z,21.10
2023-01-17T02:22:36.517Z,22.27
2023-01-17T02:25:11.666Z,24.27
2023-01-17T02:28:05.710Z,22.70
2023-01-17T02:30:34.423Z,23.23
2023-01-17T02:33:33.059Z,25.20
2023-01-17T02:36:05.891Z,25.83
2023-01-17T02:38:38.519Z,24.33
2023-01-17T02:41:08.816Z,25.10
2023-01-17T02:43:36.641Z,28.00
2023-01-17T02:46:04.045Z,26.67
2023-01-17T02:48:32.352Z,27.10
2023-01-17T02:51:18.607Z,27.98
2023-01-17T02:53:54.876Z,25.30
2023-01-17T02:56:34.555Z,25.50
2023-01-17T02:59:06.901Z,26.25
2023-01-17T03:01:43.355Z,23.33
2023-01-17T03:04:31.414Z,23.62
2023-01-17T03:07:01.447Z,23.33
2023-01-17T03:09:29.287Z,23.63
2023-01-17T03:11:56.916Z,24.03
2023-01-17T03:14:24.518Z,23.80
2023-01-17T03:16:51.890Z,23.80
2023-01-17T03:19:19.291Z,21.97
2023-01-17T03:21:46.878Z,23.47
2023-01-17T03:24:14.250Z,22.67
2023-01-17T03:26:44.921Z,22.27
2023-01-17T03:29:12.562Z,20.90
2023-01-17T03:31:39.912Z,21.77
2023-01-17T03:34:07.282Z,21.13
2023-01-17T03:36:34.961Z,19.90
2023-01-17T03:39:02.945Z,19.87
2023-01-17T03:41:30.405Z,20.17
2023-01-17T03:43:58.121Z,18.33
2023-01-17T03:46:27.448Z,17.80
2023-01-17T03:48:54.897Z,16.90
2023-01-17T03:51:22.474Z,17.73
2023-01-17T03:53:50.732Z,17.13
2023-01-17T03:56:18.222Z,16.42
2023-01-17T03:58:45.894Z,15.95
2023-01-17T04:01:13.484Z,15.82
2023-01-17T04:03:41.337Z,14.17
2023-01-17T04:06:08.684Z,12.77
2023-01-17T04:08:36.123Z,14.82
2023-01-17T04:11:03.879Z,13.23
2023-01-17T04:13:31.228Z,13.87
2023-01-17T04:15:58.621Z,12.90
2023-01-17T04:18:26.328Z,11.45
2023-01-17T04:20:53.764Z,11.40
2023-01-17T04:23:21.101Z,13.23
2023-01-17T04:25:48.735Z,10.37
2023-01-17T04:28:16.474Z,12.23
2023-01-17T04:30:43.817Z,11.93
2023-01-17T04:33:11.465Z,10.23
2023-01-17T04:35:38.861Z,10.68
2023-01-17T04:38:06.273Z,9.47
2023-01-17T04:40:33.882Z,9.73
2023-01-17T04:43:01.308Z,9.67
2023-01-17T04:45:28.845Z,9.13
2023-01-17T04:47:56.631Z,8.53
2023-01-17T04:50:24.009Z,8.17
2023-01-17T04:52:51.400Z,9.17
2023-01-17T04:55:19.140Z,8.83
2023-01-17T04:57:47.755Z,8.68
2023-01-17T05:00:15.578Z,7.47
2023-01-17T05:02:43.179Z,8.35
2023-01-17T05:05:10.641Z,7.50
2023-01-17T05:07:38.162Z,6.33
2023-01-17T05:10:06.355Z,6.60
2023-01-17T05:12:33.698Z,7.30
2023-01-17T05:15:01.817Z,5.55
2023-01-17T05:17:29.452Z,6.60
2023-01-17T05:19:56.795Z,5.25
2023-01-17T05:22:24.141Z,5.23
2023-01-17T05:24:51.791Z,4.77
2023-01-17T05:27:19.134Z,4.80
2023-01-17T05:29:46.465Z,5.93
2023-01-17T05:32:14.058Z,4.55
2023-01-17T05:34:41.419Z,4.67
2023-01-17T05:37:08.846Z,4.35
2023-01-17T05:39:36.588Z,4.43
2023-01-17T05:42:03.963Z,4.80
2023-01-17T05:44:31.289Z,5.00
2023-01-17T05:46:59.028Z,4.80
2023-01-17T05:49:26.421Z,5.17
2023-01-17T05:51:55.077Z,4.53
2023-01-17T05:54:22.869Z,5.05
2023-01-17T05:56:50.219Z,4.63
2023-01-17T05:59:28.542Z,5.77
2023-01-17T06:01:59.976Z,4.70
2023-01-17T06:04:27.675Z,4.47
2023-01-17T06:06:55.063Z,5.37
2023-01-17T06:09:22.516Z,4.37
2023-01-17T06:11:50.106Z,4.30
2023-01-17T06:14:17.445Z,4.03
2023-01-17T06:16:44.783Z,3.90
2023-01-17T06:19:12.376Z,4.17
2023-01-17T06:21:39.701Z,4.50
2023-01-17T06:24:07.193Z,4.97
2023-01-17T06:26:34.867Z,4.30
2023-01-17T06:29:02.332Z,4.13
2023-01-17T06:31:29.802Z,4.73
2023-01-17T06:33:57.558Z,4.47
2023-01-17T06:36:24.910Z,5.83
2023-01-17T06:38:52.282Z,4.93
2023-01-17T06:41:19.869Z,5.20
2023-01-17T06:43:47.293Z,5.40
2023-01-17T06:46:14.673Z,5.83
2023-01-17T06:48:45.565Z,5.80
2023-01-17T06:51:12.930Z,5.53
2023-01-17T06:53:40.479Z,5.63
2023-01-17T06:56:08.552Z,5.70
2023-01-17T06:58:36.116Z,5.83
2023-01-17T07:01:07.880Z,5.33
2023-01-17T07:03:35.632Z,5.13
2023-01-17T07:06:03.026Z,4.73
2023-01-17T07:08:30.563Z,4.20
2023-01-17T07:11:00.028Z,5.80
2023-01-17T07:13:27.863Z,5.67
2023-01-17T07:15:55.347Z,5.63
2023-01-17T07:18:25.962Z,5.20
2023-01-17T07:20:53.518Z,4.90
2023-01-17T07:23:22.081Z,5.67
2023-01-17T07:25:53.697Z,4.93
2023-01-17T07:28:21.088Z,5.17
2023-01-17T07:30:48.531Z,3.70
2023-01-17T07:33:16.194Z,4.10
2023-01-17T07:35:43.591Z,4.53
2023-01-17T07:38:18.237Z,3.90
2023-01-17T07:40:49.030Z,4.10
2023-01-17T07:43:17.253Z,3.07
2023-01-17T07:45:46.305Z,4.10
2023-01-17T07:48:14.024Z,3.53
2023-01-17T07:50:41.563Z,3.03
2023-01-17T07:53:09.006Z,2.67
2023-01-17T07:55:36.822Z,2.60
2023-01-17T07:58:04.393Z,2.17
2023-01-17T08:00:31.777Z,2.90
2023-01-17T08:03:00.048Z,2.70
2023-01-17T08:05:31.868Z,2.43
2023-01-17T08:07:59.604Z,2.70
2023-01-17T08:10:27.168Z,2.77
2023-01-17T08:12:55.381Z,2.00
2023-01-17T08:15:23.677Z,1.70
2023-01-17T08:17:53.970Z,1.67
2023-01-17T08:20:21.428Z,1.60
2023-01-17T08:22:49.228Z,1.30
2023-01-17T08:25:16.711Z,1.67
2023-01-17T08:27:44.501Z,1.50
2023-01-17T08:30:12.362Z,1.20
2023-01-17T08:32:40.888Z,1.27
2023-01-17T08:35:08.988Z,1.30
2023-01-17T08:37:37.848Z,1.43
2023-01-17T08:40:06.058Z,1.30
2023-01-17T08:42:39.299Z,1.30
2023-01-17T08:45:08.425Z,1.30
2023-01-17T08:47:35.801Z,1.47
2023-01-17T08:50:05.976Z,1.63
2023-01-17T08:52:33.974Z,1.40
2023-01-17T08:55:01.320Z,1.60
2023-01-17T08:57:28.789Z,1.43
2023-01-17T08:59:56.371Z,1.50
2023-01-17T09:02:24.773Z,1.80
2023-01-17T09:04:52.442Z,1.70
2023-01-17T09:07:20.464Z,1.30
2023-01-17T09:09:48.329Z,1.40
2023-01-17T09:12:15.824Z,1.80
2023-01-17T09:14:43.431Z,1.60
2023-01-17T09:17:10.771Z,2.00
2023-01-17T09:19:42.179Z,2.30
2023-01-17T09:22:10.171Z,2.00
2023-01-17T09:24:37.751Z,1.53
2023-01-17T09:27:05.290Z,1.57
2023-01-17T09:29:32.934Z,1.50
2023-01-17T09:32:00.977Z,1.40
2023-01-17T09:34:28.498Z,1.80
2023-01-17T09:36:56.990Z,1.30
2023-01-17T09:39:24.424Z,1.50
2023-01-17T09:41:58.629Z,1.30
2023-01-17T09:44:43.164Z,1.20
2023-01-17T09:47:31.120Z,1.20
2023-01-17T09:50:03.744Z,1.40
2023-01-17T09:52:37.379Z,1.60
2023-01-17T09:55:20.643Z,1.30
2023-01-17T09:58:02.617Z,2.57
2023-01-17T10:00:58.243Z,2.03
2023-01-17T10:03:32.540Z,1.20
2023-01-17T10:06:21.460Z,1.60
2023-01-17T10:08:55.342Z,1.77
2023-01-17T10:11:41.189Z,1.75
2023-01-17T10:14:34.607Z,1.33
2023-01-17T10:17:20.633Z,1.87
2023-01-17T10:19:59.654Z,1.98
2023-01-17T10:22:43.157Z,2.37
2023-01-17T10:25:23.254Z,1.60
2023-01-17T10:27:58.762Z,1.77
2023-01-17T10:30:34.495Z,1.58
2023-01-17T10:33:04.293Z,1.30
2023-01-17T10:35:34.784Z,1.40
2023-01-17T10:38:05.323Z,1.20
2023-01-17T10:40:50.300Z,1.33
2023-01-17T10:43:36.586Z,1.23
2023-01-17T10:46:04.642Z,1.92
2023-01-17T10:48:46.095Z,1.70
2023-01-17T10:51:44.770Z,1.63
2023-01-17T10:54:40.065Z,1.67
2023-01-17T10:57:13.565Z,1.80
2023-01-17T10:59:41.068Z,1.58
2023-01-17T11:02:23.941Z,1.40
2023-01-17T11:04:54.442Z,1.48
2023-01-17T11:07:26.686Z,2.03
2023-01-17T11:09:55.366Z,1.70
2023-01-17T11:12:24.366Z,1.80
2023-01-17T11:14:58.804Z,2.00
2023-01-17T11:17:27.813Z,1.98
2023-01-17T11:20:07.099Z,2.25
2023-01-17T11:22:35.231Z,2.10
2023-01-17T11:25:02.687Z,2.10
2023-01-17T11:27:34.241Z,2.45
2023-01-17T11:30:02.851Z,2.53
2023-01-17T11:32:32.152Z,2.40
2023-01-17T11:35:21.216Z,2.30
2023-01-17T11:37:50.505Z,2.35
2023-01-17T11:40:24.407Z,2.35
2023-01-17T11:43:10.531Z,2.12
2023-01-17T11:45:41.196Z,2.10
2023-01-17T11:48:08.862Z,2.20
2023-01-17T11:50:37.642Z,2.80
2023-01-17T11:53:17.080Z,2.20
2023-01-17T11:56:25.346Z,8.02
2023-01-17T11:59:23.017Z,3.60
2023-01-17T12:02:04.891Z,3.20
2023-01-17T12:04:36.756Z,2.80
2023-01-17T12:07:08.118Z,2.90
2023-01-17T12:09:41.086Z,2.87
2023-01-17T12:13:07.785Z,3.37
2023-01-17T12:15:53.093Z,2.75
2023-01-17T12:18:20.416Z,2.90
2023-01-17T12:21:12.370Z,3.62
2023-01-17T12:24:17.699Z,3.60
2023-01-17T12:27:22.920Z,2.55
2023-01-17T12:29:59.075Z,2.43
2023-01-17T12:32:46.827Z,2.83
2023-01-17T12:35:25.482Z,2.67
2023-01-17T12:38:06.108Z,2.75
2023-01-17T12:40:37.445Z,3.20
2023-01-17T12:43:38.445Z,2.40
2023-01-17T12:46:27.360Z,2.50
2023-01-17T12:49:16.747Z,2.90
2023-01-17T12:51:44.439Z,2.90
2023-01-17T12:54:18.394Z,2.75
2023-01-17T12:56:51.169Z,2.92
2023-01-17T12:59:40.463Z,3.00
2023-01-17T13:02:20.534Z,3.30
2023-01-17T13:04:59.789Z,3.03
2023-01-17T13:07:33.124Z,3.00
2023-01-17T13:10:23.769Z,3.47
2023-01-17T13:12:51.117Z,3.87
2023-01-17T13:15:21.363Z,4.00
2023-01-17T13:17:51.536Z,4.30
2023-01-17T13:20:32.048Z,4.47
2023-01-17T13:23:29.163Z,3.83
2023-01-17T13:25:58.320Z,3.70
2023-01-17T13:28:44.418Z,4.15
2023-01-17T13:34:15.761Z,3.70
2023-01-17T13:37:01.549Z,4.25
2023-01-17T13:39:46.284Z,3.83
2023-01-17T13:42:51.674Z,4.35
2023-01-17T13:45:24.172Z,4.43
2023-01-17T13:47:52.872Z,4.03
2023-01-17T13:50:38.720Z,4.62
2023-01-17T13:53:34.248Z,4.57
2023-01-17T13:56:19.639Z,4.85
2023-01-17T13:58:50.669Z,4.75
2023-01-17T14:01:24.439Z,4.05
2023-01-17T14:03:52.142Z,5.30
2023-01-17T14:06:38.731Z,3.42
2023-01-17T14:09:18.578Z,4.47
2023-01-17T14:12:24.715Z,4.43
2023-01-17T14:14:55.532Z,3.65
2023-01-17T14:17:23.070Z,3.87
2023-01-17T14:20:21.392Z,4.75
2023-01-17T14:22:52.223Z,3.92
2023-01-17T14:25:19.988Z,4.18
2023-01-17T14:28:03.186Z,4.57
2023-01-17T14:30:34.425Z,3.65
2023-01-17T14:33:01.818Z,3.75
2023-01-17T14:35:34.346Z,3.50
2023-01-17T14:38:03.119Z,3.80
2023-01-17T14:40:34.540Z,3.55
2023-01-17T14:43:16.076Z,3.95
2023-01-17T14:45:43.578Z,3.90
2023-01-17T14:48:21.889Z,3.85
2023-01-17T14:50:50.339Z,4.22
2023-01-17T14:53:26.107Z,4.35
2023-01-17T14:55:56.235Z,5.60
2023-01-17T14:58:30.454Z,4.35
2023-01-17T15:01:11.572Z,4.80
2023-01-17T15:03:47.930Z,5.47
2023-01-17T15:06:23.132Z,6.25
2023-01-17T15:08:53.990Z,5.93
2023-01-17T15:11:26.452Z,5.40
2023-01-17T15:13:57.359Z,4.40
2023-01-17T15:16:26.808Z,5.28
2023-01-17T15:18:55.587Z,4.43
2023-01-17T15:21:24.849Z,3.53
2023-01-17T15:23:59.748Z,4.45
2023-01-17T15:26:28.934Z,4.75
2023-01-17T15:29:04.608Z,4.43
2023-01-17T15:31:42.937Z,5.65
2023-01-17T15:34:33.802Z,5.67
2023-01-17T15:37:03.085Z,6.32
2023-01-17T15:39:34.361Z,5.80
2023-01-17T15:42:04.632Z,5.90
2023-01-17T15:44:47.968Z,6.75
2023-01-17T15:47:28.004Z,5.65
2023-01-17T15:49:55.397Z,5.78
2023-01-17T15:52:23.008Z,5.75
2023-01-17T15:54:53.393Z,7.35
2023-01-17T15:57:23.238Z,6.18
2023-01-17T16:00:05.729Z,6.28
2023-01-17T16:02:43.187Z,5.50
2023-01-17T16:05:23.504Z,5.95
2023-01-17T16:07:58.233Z,7.18
2023-01-17T16:10:28.716Z,7.30
2023-01-17T16:12:56.381Z,6.65
2023-01-17T16:15:24.028Z,6.93
2023-01-17T16:17:53.929Z,6.85
2023-01-17T16:20:22.088Z,6.68
2023-01-17T16:22:50.435Z,6.45
2023-01-17T16:25:22.543Z,5.90
2023-01-17T16:27:50.294Z,5.50
2023-01-17T16:30:19.238Z,5.28
2023-01-17T16:32:50.464Z,5.28
2023-01-17T16:35:22.376Z,6.15
2023-01-17T16:37:51.019Z,6.07
2023-01-17T16:40:22.611Z,5.95
2023-01-17T16:42:50.057Z,5.47
2023-01-17T16:45:17.529Z,5.25
2023-01-17T16:47:46.151Z,5.30
2023-01-17T16:50:15.379Z,4.95
2023-01-17T16:52:42.738Z,4.97
2023-01-17T16:55:12.535Z,6.20
2023-01-17T16:57:39.968Z,5.67
2023-01-17T17:00:07.914Z,5.37
2023-01-17T17:02:36.071Z,5.33
2023-01-17T17:05:03.556Z,5.20
2023-01-17T17:07:30.942Z,5.55
2023-01-17T17:09:58.746Z,5.70
2023-01-17T17:12:26.118Z,5.80
2023-01-17T17:14:53.519Z,5.77
2023-01-17T17:17:21.140Z,6.57
2023-01-17T17:19:48.558Z,6.30
2023-01-17T17:22:15.923Z,6.50
2023-01-17T17:24:43.514Z,7.17
2023-01-17T17:27:10.846Z,6.90
2023-01-17T17:29:38.184Z,6.55
2023-01-17T17:32:07.090Z,7.33
2023-01-17T17:34:36.682Z,6.70
2023-01-17T17:37:04.585Z,7.57
2023-01-17T17:39:32.216Z,6.27
2023-01-17T17:41:59.554Z,7.10
2023-01-17T17:44:27.519Z,6.28
2023-01-17T17:46:55.193Z,6.20
2023-01-17T17:49:22.734Z,6.57
2023-01-17T17:51:50.096Z,10.17
2023-01-17T17:54:17.953Z,8.73
2023-01-17T17:56:47.317Z,19.40
2023-01-17T17:59:18.236Z,12.40
2023-01-17T18:01:46.086Z,7.73
2023-01-17T18:04:14.215Z,9.13
2023-01-17T18:06:41.674Z,8.67
2023-01-17T18:09:09.962Z,8.03
2023-01-17T18:11:38.734Z,8.50
2023-01-17T18:14:06.632Z,7.70
2023-01-17T18:16:41.412Z,7.77
2023-01-17T18:19:13.300Z,7.97
2023-01-17T18:21:40.720Z,6.83
2023-01-17T18:24:10.225Z,8.20
2023-01-17T18:26:39.378Z,7.13
2023-01-17T18:29:07.395Z,6.10
2023-01-17T18:31:34.811Z,6.60
2023-01-17T18:34:10.403Z,6.00
2023-01-17T18:36:38.109Z,6.93
2023-01-17T18:39:14.833Z,6.37
2023-01-17T18:41:42.279Z,6.00
2023-01-17T18:44:09.998Z,6.13
2023-01-17T18:46:37.843Z,5.83
2023-01-17T18:49:05.250Z,5.30
2023-01-17T18:51:34.360Z,6.33
2023-01-17T18:54:05.915Z,4.73
2023-01-17T18:56:34.719Z,4.97
2023-01-17T18:59:02.320Z,5.93
2023-01-17T19:01:30.752Z,5.13
2023-01-17T19:03:59.809Z,4.47
2023-01-17T19:06:32.312Z,4.60
2023-01-17T19:08:59.957Z,4.20
2023-01-17T19:11:27.700Z,4.20
2023-01-17T19:13:55.394Z,4.33
2023-01-17T19:16:30.600Z,4.03
2023-01-17T19:19:01.791Z,4.00
2023-01-17T19:21:29.510Z,3.63
